sensor_id;sensor_type;location;lat;lon;timestamp;P1;durP1;ratioP1;P2;durP2;ratioP2
12554;SDS011;6343;50.868;4.700;2023-11-25T00:02:14;4.90;;;1.27;;
12554;SDS011;6343;50.868;4.700;2023-11-25T00:04:40;2.73;;;0.80;;
12554;SDS011;6343;50.868;4.700;2023-11-25T00:07:06;5.83;;;1.60;;
12554;SDS011;6343;50.868;4.700;2023-11-25T00:09:32;8.77;;;1.27;;
12554;SDS011;6343;50.868;4.700;2023-11-25T00:11:58;5.70;;;1.90;;
12554;SDS011;6343;50.868;4.700;2023-11-25T00:14:24;7.10;;;1.30;;
12554;SDS011;6343;50.868;4.700;2023-11-25T00:16:50;5.77;;;1.20;;
12554;SDS011;6343;50.868;4.700;2023-11-25T00:19:16;6.20;;;2.23;;
12554;SDS011;6343;50.868;4.700;2023-11-25T00:21:42;4.73;;;1.20;;
12554;SDS011;6343;50.868;4.700;2023-11-25T00:24:09;6.90;;;1.10;;
12554;SDS011;6343;50.868;4.700;2023-11-25T00:26:35;6.60;;;1.87;;
12554;SDS011;6343;50.868;4.700;2023-11-25T00:29:01;6.50;;;1.30;;
12554;SDS011;6343;50.868;4.700;2023-11-25T00:31:27;4.80;;;1.17;;
12554;SDS011;6343;50.868;4.700;2023-11-25T00:33:54;7.73;;;1.37;;
12554;SDS011;6343;50.868;4.700;2023-11-25T00:36:20;6.43;;;1.13;;
12554;SDS011;6343;50.868;4.700;2023-11-25T00:38:46;9.57;;;1.70;;
12554;SDS011;6343;50.868;4.700;2023-11-25T00:41:12;7.50;;;1.60;;
12554;SDS011;6343;50.868;4.700;2023-11-25T00:43:38;4.70;;;1.53;;
12554;SDS011;6343;50.868;4.700;2023-11-25T00:46:04;9.53;;;1.53;;
12554;SDS011;6343;50.868;4.700;2023-11-25T00:48:30;4.90;;;1.30;;
12554;SDS011;6343;50.868;4.700;2023-11-25T00:50:56;9.63;;;1.80;;
12554;SDS011;6343;50.868;4.700;2023-11-25T00:53:23;7.23;;;1.90;;
12554;SDS011;6343;50.868;4.700;2023-11-25T00:55:49;5.67;;;1.20;;
12554;SDS011;6343;50.868;4.700;2023-11-25T00:58:15;6.90;;;1.60;;
12554;SDS011;6343;50.868;4.700;2023-11-25T01:00:41;9.83;;;1.47;;
12554;SDS011;6343;50.868;4.700;2023-11-25T01:03:07;5.40;;;1.40;;
12554;SDS011;6343;50.868;4.700;2023-11-25T01:05:33;8.67;;;1.43;;
12554;SDS011;6343;50.868;4.700;2023-11-25T01:07:59;8.37;;;1.40;;
12554;SDS011;6343;50.868;4.700;2023-11-25T01:10:25;4.40;;;1.00;;
12554;SDS011;6343;50.868;4.700;2023-11-25T01:12:51;8.83;;;1.40;;
12554;SDS011;6343;50.868;4.700;2023-11-25T01:15:17;6.73;;;1.67;;
12554;SDS011;6343;50.868;4.700;2023-11-25T01:17:45;10.33;;;1.87;;
12554;SDS011;6343;50.868;4.700;2023-11-25T01:20:11;5.77;;;1.17;;
12554;SDS011;6343;50.868;4.700;2023-11-25T01:22:38;5.80;;;1.33;;
12554;SDS011;6343;50.868;4.700;2023-11-25T01:25:05;7.90;;;1.70;;
12554;SDS011;6343;50.868;4.700;2023-11-25T01:27:34;5.27;;;1.20;;
12554;SDS011;6343;50.868;4.700;2023-11-25T01:30:01;5.70;;;1.60;;
12554;SDS011;6343;50.868;4.700;2023-11-25T01:32:29;5.50;;;1.43;;
12554;SDS011;6343;50.868;4.700;2023-11-25T01:34:56;3.73;;;1.50;;
12554;SDS011;6343;50.868;4.700;2023-11-25T01:37:22;10.03;;;1.70;;
12554;SDS011;6343;50.868;4.700;2023-11-25T01:39:51;7.60;;;1.80;;
12554;SDS011;6343;50.868;4.700;2023-11-25T01:42:18;6.07;;;1.30;;
12554;SDS011;6343;50.868;4.700;2023-11-25T01:44:44;4.87;;;1.17;;
12554;SDS011;6343;50.868;4.700;2023-11-25T01:47:11;7.50;;;1.80;;
12554;SDS011;6343;50.868;4.700;2023-11-25T01:49:37;3.03;;;1.17;;
12554;SDS011;6343;50.868;4.700;2023-11-25T01:52:04;9.93;;;1.50;;
12554;SDS011;6343;50.868;4.700;2023-11-25T01:54:30;7.60;;;1.63;;
12554;SDS011;6343;50.868;4.700;2023-11-25T01:56:57;7.03;;;1.40;;
12554;SDS011;6343;50.868;4.700;2023-11-25T01:59:27;5.83;;;2.20;;
12554;SDS011;6343;50.868;4.700;2023-11-25T02:01:55;6.40;;;1.70;;
12554;SDS011;6343;50.868;4.700;2023-11-25T02:04:21;4.80;;;1.70;;
12554;SDS011;6343;50.868;4.700;2023-11-25T02:06:48;6.23;;;1.57;;
12554;SDS011;6343;50.868;4.700;2023-11-25T02:09:15;7.63;;;1.70;;
12554;SDS011;6343;50.868;4.700;2023-11-25T02:11:52;6.37;;;1.37;;
12554;SDS011;6343;50.868;4.700;2023-11-25T02:14:19;6.83;;;1.60;;
12554;SDS011;6343;50.868;4.700;2023-11-25T02:16:45;4.83;;;1.30;;
12554;SDS011;6343;50.868;4.700;2023-11-25T02:19:11;7.77;;;1.53;;
12554;SDS011;6343;50.868;4.700;2023-11-25T02:21:40;7.13;;;1.23;;
12554;SDS011;6343;50.868;4.700;2023-11-25T02:24:07;9.80;;;2.03;;
12554;SDS011;6343;50.868;4.700;2023-11-25T02:26:33;5.37;;;1.47;;
12554;SDS011;6343;50.868;4.700;2023-11-25T02:29:02;8.83;;;1.80;;
12554;SDS011;6343;50.868;4.700;2023-11-25T02:31:28;5.23;;;1.33;;
12554;SDS011;6343;50.868;4.700;2023-11-25T02:33:55;2.63;;;1.43;;
12554;SDS011;6343;50.868;4.700;2023-11-25T02:36:21;7.90;;;1.67;;
12554;SDS011;6343;50.868;4.700;2023-11-25T02:38:48;6.20;;;1.43;;
12554;SDS011;6343;50.868;4.700;2023-11-25T02:41:14;3.77;;;1.30;;
12554;SDS011;6343;50.868;4.700;2023-11-25T02:43:40;7.00;;;1.40;;
12554;SDS011;6343;50.868;4.700;2023-11-25T02:46:07;7.20;;;1.33;;
12554;SDS011;6343;50.868;4.700;2023-11-25T02:48:33;4.40;;;1.30;;
12554;SDS011;6343;50.868;4.700;2023-11-25T02:51:00;13.30;;;2.07;;
12554;SDS011;6343;50.868;4.700;2023-11-25T02:53:27;12.97;;;1.53;;
12554;SDS011;6343;50.868;4.700;2023-11-25T02:55:55;7.83;;;2.03;;
12554;SDS011;6343;50.868;4.700;2023-11-25T02:58:21;6.73;;;1.40;;
12554;SDS011;6343;50.868;4.700;2023-11-25T03:00:47;6.10;;;1.60;;
12554;SDS011;6343;50.868;4.700;2023-11-25T03:03:14;8.97;;;2.20;;
12554;SDS011;6343;50.868;4.700;2023-11-25T03:05:47;4.80;;;1.47;;
12554;SDS011;6343;50.868;4.700;2023-11-25T03:08:18;7.77;;;1.90;;
12554;SDS011;6343;50.868;4.700;2023-11-25T03:10:45;9.60;;;1.77;;
12554;SDS011;6343;50.868;4.700;2023-11-25T03:13:12;7.87;;;1.60;;
12554;SDS011;6343;50.868;4.700;2023-11-25T03:15:39;8.37;;;2.03;;
12554;SDS011;6343;50.868;4.700;2023-11-25T03:18:05;8.10;;;1.63;;
12554;SDS011;6343;50.868;4.700;2023-11-25T03:20:35;5.13;;;1.70;;
12554;SDS011;6343;50.868;4.700;2023-11-25T03:23:01;9.47;;;2.13;;
12554;SDS011;6343;50.868;4.700;2023-11-25T03:25:28;5.57;;;1.53;;
12554;SDS011;6343;50.868;4.700;2023-11-25T03:27:59;6.40;;;1.40;;
12554;SDS011;6343;50.868;4.700;2023-11-25T03:30:30;5.70;;;1.70;;
12554;SDS011;6343;50.868;4.700;2023-11-25T03:32:56;14.43;;;1.90;;
12554;SDS011;6343;50.868;4.700;2023-11-25T03:35:22;6.57;;;1.40;;
12554;SDS011;6343;50.868;4.700;2023-11-25T03:37:49;9.50;;;1.87;;
12554;SDS011;6343;50.868;4.700;2023-11-25T03:40:15;5.80;;;1.30;;
12554;SDS011;6343;50.868;4.700;2023-11-25T03:42:44;4.87;;;1.60;;
12554;SDS011;6343;50.868;4.700;2023-11-25T03:45:11;8.70;;;1.83;;
12554;SDS011;6343;50.868;4.700;2023-11-25T03:47:39;4.33;;;1.20;;
12554;SDS011;6343;50.868;4.700;2023-11-25T03:50:05;4.13;;;1.50;;
12554;SDS011;6343;50.868;4.700;2023-11-25T03:52:31;7.83;;;1.73;;
12554;SDS011;6343;50.868;4.700;2023-11-25T03:54:58;7.67;;;1.90;;
12554;SDS011;6343;50.868;4.700;2023-11-25T03:57:27;10.03;;;1.63;;
12554;SDS011;6343;50.868;4.700;2023-11-25T03:59:53;6.57;;;1.60;;
12554;SDS011;6343;50.868;4.700;2023-11-25T04:02:19;8.63;;;1.67;;
12554;SDS011;6343;50.868;4.700;2023-11-25T04:04:45;7.23;;;2.23;;
12554;SDS011;6343;50.868;4.700;2023-11-25T04:07:12;5.67;;;2.00;;
12554;SDS011;6343;50.868;4.700;2023-11-25T04:09:38;8.13;;;2.50;;
12554;SDS011;6343;50.868;4.700;2023-11-25T04:12:04;8.63;;;1.80;;
12554;SDS011;6343;50.868;4.700;2023-11-25T04:14:31;4.37;;;1.60;;
12554;SDS011;6343;50.868;4.700;2023-11-25T04:16:57;10.10;;;1.93;;
12554;SDS011;6343;50.868;4.700;2023-11-25T04:19:23;6.77;;;1.97;;
12554;SDS011;6343;50.868;4.700;2023-11-25T04:21:49;10.63;;;2.00;;
12554;SDS011;6343;50.868;4.700;2023-11-25T04:24:16;11.83;;;2.17;;
12554;SDS011;6343;50.868;4.700;2023-11-25T04:26:44;8.83;;;1.80;;
12554;SDS011;6343;50.868;4.700;2023-11-25T04:29:10;6.90;;;1.70;;
12554;SDS011;6343;50.868;4.700;2023-11-25T04:31:36;5.20;;;1.67;;
12554;SDS011;6343;50.868;4.700;2023-11-25T04:34:03;8.37;;;1.83;;
12554;SDS011;6343;50.868;4.700;2023-11-25T04:36:30;6.73;;;1.60;;
12554;SDS011;6343;50.868;4.700;2023-11-25T04:38:57;11.00;;;2.07;;
12554;SDS011;6343;50.868;4.700;2023-11-25T04:41:24;8.10;;;1.70;;
12554;SDS011;6343;50.868;4.700;2023-11-25T04:43:50;6.73;;;1.60;;
12554;SDS011;6343;50.868;4.700;2023-11-25T04:46:16;10.33;;;1.60;;
12554;SDS011;6343;50.868;4.700;2023-11-25T04:48:42;8.30;;;1.97;;
12554;SDS011;6343;50.868;4.700;2023-11-25T04:51:08;9.57;;;2.30;;
12554;SDS011;6343;50.868;4.700;2023-11-25T04:53:34;9.83;;;1.93;;
12554;SDS011;6343;50.868;4.700;2023-11-25T04:56:01;10.30;;;2.50;;
12554;SDS011;6343;50.868;4.700;2023-11-25T04:58:29;10.33;;;1.93;;
12554;SDS011;6343;50.868;4.700;2023-11-25T05:00:55;12.77;;;2.20;;
12554;SDS011;6343;50.868;4.700;2023-11-25T05:03:22;7.60;;;2.03;;
12554;SDS011;6343;50.868;4.700;2023-11-25T05:05:51;7.37;;;2.17;;
12554;SDS011;6343;50.868;4.700;2023-11-25T05:08:18;8.60;;;1.87;;
12554;SDS011;6343;50.868;4.700;2023-11-25T05:10:44;11.07;;;1.87;;
12554;SDS011;6343;50.868;4.700;2023-11-25T05:13:10;7.83;;;2.00;;
12554;SDS011;6343;50.868;4.700;2023-11-25T05:15:36;10.90;;;2.40;;
12554;SDS011;6343;50.868;4.700;2023-11-25T05:18:02;8.17;;;2.00;;
12554;SDS011;6343;50.868;4.700;2023-11-25T05:20:28;7.97;;;1.97;;
12554;SDS011;6343;50.868;4.700;2023-11-25T05:22:54;12.00;;;1.77;;
12554;SDS011;6343;50.868;4.700;2023-11-25T05:25:21;7.40;;;1.90;;
12554;SDS011;6343;50.868;4.700;2023-11-25T05:27:47;11.83;;;1.93;;
12554;SDS011;6343;50.868;4.700;2023-11-25T05:30:13;9.23;;;1.97;;
12554;SDS011;6343;50.868;4.700;2023-11-25T05:32:41;8.63;;;2.10;;
12554;SDS011;6343;50.868;4.700;2023-11-25T05:35:08;8.83;;;2.47;;
12554;SDS011;6343;50.868;4.700;2023-11-25T05:37:35;7.87;;;1.93;;
12554;SDS011;6343;50.868;4.700;2023-11-25T05:40:01;9.60;;;2.60;;
12554;SDS011;6343;50.868;4.700;2023-11-25T05:42:30;14.60;;;2.57;;
12554;SDS011;6343;50.868;4.700;2023-11-25T05:44:57;9.23;;;2.17;;
12554;SDS011;6343;50.868;4.700;2023-11-25T05:47:23;11.40;;;2.17;;
12554;SDS011;6343;50.868;4.700;2023-11-25T05:49:49;7.10;;;2.50;;
12554;SDS011;6343;50.868;4.700;2023-11-25T05:52:15;11.03;;;2.20;;
12554;SDS011;6343;50.868;4.700;2023-11-25T05:54:42;11.50;;;2.43;;
12554;SDS011;6343;50.868;4.700;2023-11-25T05:57:08;8.43;;;2.43;;
12554;SDS011;6343;50.868;4.700;2023-11-25T05:59:37;9.27;;;2.97;;
12554;SDS011;6343;50.868;4.700;2023-11-25T06:02:03;11.33;;;2.77;;
12554;SDS011;6343;50.868;4.700;2023-11-25T06:04:29;17.60;;;3.17;;
12554;SDS011;6343;50.868;4.700;2023-11-25T06:06:55;10.10;;;2.10;;
12554;SDS011;6343;50.868;4.700;2023-11-25T06:09:21;17.80;;;2.80;;
12554;SDS011;6343;50.868;4.700;2023-11-25T06:11:48;12.13;;;2.10;;
12554;SDS011;6343;50.868;4.700;2023-11-25T06:14:16;11.23;;;1.87;;
12554;SDS011;6343;50.868;4.700;2023-11-25T06:16:44;11.47;;;1.73;;
12554;SDS011;6343;50.868;4.700;2023-11-25T06:19:11;9.10;;;1.93;;
12554;SDS011;6343;50.868;4.700;2023-11-25T06:21:39;8.50;;;1.93;;
12554;SDS011;6343;50.868;4.700;2023-11-25T06:24:06;12.77;;;1.83;;
12554;SDS011;6343;50.868;4.700;2023-11-25T06:26:32;11.90;;;2.70;;
12554;SDS011;6343;50.868;4.700;2023-11-25T06:28:58;5.73;;;1.60;;
12554;SDS011;6343;50.868;4.700;2023-11-25T06:31:25;6.27;;;1.53;;
12554;SDS011;6343;50.868;4.700;2023-11-25T06:33:51;6.47;;;1.50;;
12554;SDS011;6343;50.868;4.700;2023-11-25T06:36:17;8.87;;;1.90;;
12554;SDS011;6343;50.868;4.700;2023-11-25T06:38:43;5.90;;;1.60;;
12554;SDS011;6343;50.868;4.700;2023-11-25T06:41:09;7.63;;;1.60;;
12554;SDS011;6343;50.868;4.700;2023-11-25T06:43:36;5.83;;;1.50;;
12554;SDS011;6343;50.868;4.700;2023-11-25T06:46:04;6.10;;;2.10;;
12554;SDS011;6343;50.868;4.700;2023-11-25T06:48:30;5.77;;;1.70;;
12554;SDS011;6343;50.868;4.700;2023-11-25T06:50:57;7.43;;;1.93;;
12554;SDS011;6343;50.868;4.700;2023-11-25T06:53:23;7.27;;;1.47;;
12554;SDS011;6343;50.868;4.700;2023-11-25T06:55:49;8.23;;;1.90;;
12554;SDS011;6343;50.868;4.700;2023-11-25T06:58:16;10.77;;;2.40;;
12554;SDS011;6343;50.868;4.700;2023-11-25T07:00:43;8.63;;;2.30;;
12554;SDS011;6343;50.868;4.700;2023-11-25T07:03:10;10.20;;;2.30;;
12554;SDS011;6343;50.868;4.700;2023-11-25T07:05:37;4.20;;;1.30;;
12554;SDS011;6343;50.868;4.700;2023-11-25T07:08:03;7.40;;;1.57;;
12554;SDS011;6343;50.868;4.700;2023-11-25T07:10:30;5.87;;;1.60;;
12554;SDS011;6343;50.868;4.700;2023-11-25T07:13:03;8.73;;;1.87;;
12554;SDS011;6343;50.868;4.700;2023-11-25T07:15:29;8.13;;;2.30;;
12554;SDS011;6343;50.868;4.700;2023-11-25T07:17:56;13.37;;;2.47;;
12554;SDS011;6343;50.868;4.700;2023-11-25T07:20:22;8.70;;;2.00;;
12554;SDS011;6343;50.868;4.700;2023-11-25T07:22:48;8.20;;;1.80;;
12554;SDS011;6343;50.868;4.700;2023-11-25T07:25:14;7.57;;;2.37;;
12554;SDS011;6343;50.868;4.700;2023-11-25T07:27:41;5.93;;;1.93;;
12554;SDS011;6343;50.868;4.700;2023-11-25T07:30:09;6.03;;;2.00;;
12554;SDS011;6343;50.868;4.700;2023-11-25T07:32:36;7.43;;;2.30;;
12554;SDS011;6343;50.868;4.700;2023-11-25T07:35:03;11.17;;;2.93;;
12554;SDS011;6343;50.868;4.700;2023-11-25T07:37:32;11.37;;;2.67;;
12554;SDS011;6343;50.868;4.700;2023-11-25T07:39:59;14.27;;;2.60;;
12554;SDS011;6343;50.868;4.700;2023-11-25T07:42:25;7.33;;;2.37;;
12554;SDS011;6343;50.868;4.700;2023-11-25T07:44:51;10.47;;;1.80;;
12554;SDS011;6343;50.868;4.700;2023-11-25T07:47:18;7.27;;;1.90;;
12554;SDS011;6343;50.868;4.700;2023-11-25T07:49:44;6.50;;;1.80;;
12554;SDS011;6343;50.868;4.700;2023-11-25T07:52:10;8.20;;;2.27;;
12554;SDS011;6343;50.868;4.700;2023-11-25T07:54:36;7.17;;;1.97;;
12554;SDS011;6343;50.868;4.700;2023-11-25T07:57:03;5.90;;;1.67;;
12554;SDS011;6343;50.868;4.700;2023-11-25T07:59:30;8.40;;;1.97;;
12554;SDS011;6343;50.868;4.700;2023-11-25T08:01:56;4.37;;;1.70;;
12554;SDS011;6343;50.868;4.700;2023-11-25T08:04:22;8.47;;;1.80;;
12554;SDS011;6343;50.868;4.700;2023-11-25T08:06:50;5.90;;;2.03;;
12554;SDS011;6343;50.868;4.700;2023-11-25T08:09:16;4.67;;;1.50;;
12554;SDS011;6343;50.868;4.700;2023-11-25T08:11:43;3.47;;;1.67;;
12554;SDS011;6343;50.868;4.700;2023-11-25T08:14:09;8.20;;;1.70;;
12554;SDS011;6343;50.868;4.700;2023-11-25T08:16:35;5.93;;;1.53;;
12554;SDS011;6343;50.868;4.700;2023-11-25T08:19:01;4.20;;;1.40;;
12554;SDS011;6343;50.868;4.700;2023-11-25T08:21:29;7.33;;;1.60;;
12554;SDS011;6343;50.868;4.700;2023-11-25T08:23:55;8.13;;;2.03;;
12554;SDS011;6343;50.868;4.700;2023-11-25T08:26:22;5.70;;;1.47;;
12554;SDS011;6343;50.868;4.700;2023-11-25T08:28:54;4.93;;;1.57;;
12554;SDS011;6343;50.868;4.700;2023-11-25T08:31:21;7.10;;;1.60;;
12554;SDS011;6343;50.868;4.700;2023-11-25T08:33:48;5.77;;;1.83;;
12554;SDS011;6343;50.868;4.700;2023-11-25T08:36:14;9.37;;;2.00;;
12554;SDS011;6343;50.868;4.700;2023-11-25T08:38:43;4.20;;;1.30;;
12554;SDS011;6343;50.868;4.700;2023-11-25T08:41:09;7.97;;;1.57;;
12554;SDS011;6343;50.868;4.700;2023-11-25T08:43:39;5.83;;;1.20;;
12554;SDS011;6343;50.868;4.700;2023-11-25T08:46:08;4.23;;;1.20;;
12554;SDS011;6343;50.868;4.700;2023-11-25T08:48:34;7.80;;;1.47;;
12554;SDS011;6343;50.868;4.700;2023-11-25T08:51:00;4.30;;;1.37;;
12554;SDS011;6343;50.868;4.700;2023-11-25T08:53:27;5.17;;;1.53;;
12554;SDS011;6343;50.868;4.700;2023-11-25T08:55:54;5.83;;;1.23;;
12554;SDS011;6343;50.868;4.700;2023-11-25T08:58:24;4.30;;;1.30;;
12554;SDS011;6343;50.868;4.700;2023-11-25T09:00:50;6.00;;;1.50;;
12554;SDS011;6343;50.868;4.700;2023-11-25T09:03:17;9.30;;;1.50;;
12554;SDS011;6343;50.868;4.700;2023-11-25T09:05:46;4.10;;;1.40;;
12554;SDS011;6343;50.868;4.700;2023-11-25T09:08:13;4.17;;;1.30;;
12554;SDS011;6343;50.868;4.700;2023-11-25T09:10:39;7.97;;;1.77;;
12554;SDS011;6343;50.868;4.700;2023-11-25T09:13:06;7.00;;;1.70;;
12554;SDS011;6343;50.868;4.700;2023-11-25T09:15:32;5.87;;;1.93;;
12554;SDS011;6343;50.868;4.700;2023-11-25T09:17:58;5.27;;;1.67;;
12554;SDS011;6343;50.868;4.700;2023-11-25T09:20:26;5.87;;;1.57;;
12554;SDS011;6343;50.868;4.700;2023-11-25T09:22:52;6.33;;;1.67;;
12554;SDS011;6343;50.868;4.700;2023-11-25T09:25:20;4.27;;;1.20;;
12554;SDS011;6343;50.868;4.700;2023-11-25T09:27:46;4.63;;;1.30;;
12554;SDS011;6343;50.868;4.700;2023-11-25T09:30:13;10.33;;;1.40;;
12554;SDS011;6343;50.868;4.700;2023-11-25T09:32:43;6.93;;;1.27;;
12554;SDS011;6343;50.868;4.700;2023-11-25T09:35:10;4.67;;;1.40;;
12554;SDS011;6343;50.868;4.700;2023-11-25T09:37:37;7.00;;;1.30;;
12554;SDS011;6343;50.868;4.700;2023-11-25T09:40:03;4.90;;;1.73;;
12554;SDS011;6343;50.868;4.700;2023-11-25T09:42:31;7.37;;;1.40;;
12554;SDS011;6343;50.868;4.700;2023-11-25T09:44:58;6.27;;;1.40;;
12554;SDS011;6343;50.868;4.700;2023-11-25T09:47:25;3.43;;;1.33;;
12554;SDS011;6343;50.868;4.700;2023-11-25T09:49:51;7.33;;;1.30;;
12554;SDS011;6343;50.868;4.700;2023-11-25T09:52:18;6.03;;;1.10;;
12554;SDS011;6343;50.868;4.700;2023-11-25T09:54:45;5.83;;;1.40;;
12554;SDS011;6343;50.868;4.700;2023-11-25T09:57:13;3.97;;;1.37;;
12554;SDS011;6343;50.868;4.700;2023-11-25T09:59:40;2.27;;;0.93;;
12554;SDS011;6343;50.868;4.700;2023-11-25T10:02:06;5.67;;;1.00;;
12554;SDS011;6343;50.868;4.700;2023-11-25T10:04:35;6.10;;;1.70;;
12554;SDS011;6343;50.868;4.700;2023-11-25T10:07:04;7.13;;;1.47;;
12554;SDS011;6343;50.868;4.700;2023-11-25T10:09:40;2.77;;;1.20;;
12554;SDS011;6343;50.868;4.700;2023-11-25T10:12:07;9.20;;;1.37;;
12554;SDS011;6343;50.868;4.700;2023-11-25T10:14:44;2.70;;;1.43;;
12554;SDS011;6343;50.868;4.700;2023-11-25T10:19:42;6.50;;;1.53;;
12554;SDS011;6343;50.868;4.700;2023-11-25T10:22:08;6.10;;;1.70;;
12554;SDS011;6343;50.868;4.700;2023-11-25T10:24:42;3.33;;;1.60;;
12554;SDS011;6343;50.868;4.700;2023-11-25T10:27:09;9.17;;;1.50;;
12554;SDS011;6343;50.868;4.700;2023-11-25T10:29:35;6.10;;;1.50;;
12554;SDS011;6343;50.868;4.700;2023-11-25T10:32:06;3.30;;;1.10;;
12554;SDS011;6343;50.868;4.700;2023-11-25T10:34:36;4.80;;;1.50;;
12554;SDS011;6343;50.868;4.700;2023-11-25T10:37:03;5.17;;;1.97;;
12554;SDS011;6343;50.868;4.700;2023-11-25T10:39:32;5.80;;;1.53;;
12554;SDS011;6343;50.868;4.700;2023-11-25T10:41:59;9.40;;;2.03;;
12554;SDS011;6343;50.868;4.700;2023-11-25T10:44:28;3.80;;;1.60;;
12554;SDS011;6343;50.868;4.700;2023-11-25T10:46:54;8.00;;;1.90;;
12554;SDS011;6343;50.868;4.700;2023-11-25T10:49:23;6.70;;;2.10;;
12554;SDS011;6343;50.868;4.700;2023-11-25T10:51:52;4.10;;;1.53;;
12554;SDS011;6343;50.868;4.700;2023-11-25T10:54:21;6.37;;;1.60;;
12554;SDS011;6343;50.868;4.700;2023-11-25T10:56:52;7.07;;;1.77;;
12554;SDS011;6343;50.868;4.700;2023-11-25T10:59:19;3.53;;;1.67;;
12554;SDS011;6343;50.868;4.700;2023-11-25T11:01:46;7.60;;;1.40;;
12554;SDS011;6343;50.868;4.700;2023-11-25T11:04:18;7.27;;;2.17;;
12554;SDS011;6343;50.868;4.700;2023-11-25T11:06:48;8.33;;;2.07;;
12554;SDS011;6343;50.868;4.700;2023-11-25T11:09:19;5.57;;;1.23;;
12554;SDS011;6343;50.868;4.700;2023-11-25T11:11:51;4.20;;;1.40;;
12554;SDS011;6343;50.868;4.700;2023-11-25T11:14:22;4.87;;;1.90;;
12554;SDS011;6343;50.868;4.700;2023-11-25T11:16:49;6.43;;;1.73;;
12554;SDS011;6343;50.868;4.700;2023-11-25T11:19:25;10.80;;;1.63;;
12554;SDS011;6343;50.868;4.700;2023-11-25T11:21:55;7.53;;;1.43;;
12554;SDS011;6343;50.868;4.700;2023-11-25T11:24:27;6.13;;;1.37;;
12554;SDS011;6343;50.868;4.700;2023-11-25T11:27:09;8.83;;;1.70;;
12554;SDS011;6343;50.868;4.700;2023-11-25T11:32:07;4.20;;;1.47;;
12554;SDS011;6343;50.868;4.700;2023-11-25T11:34:34;7.83;;;1.57;;
12554;SDS011;6343;50.868;4.700;2023-11-25T11:37:01;12.20;;;2.10;;
12554;SDS011;6343;50.868;4.700;2023-11-25T11:55:38;4.87;;;1.30;;
12554;SDS011;6343;50.868;4.700;2023-11-25T12:00:30;6.10;;;1.20;;
12554;SDS011;6343;50.868;4.700;2023-11-25T12:02:59;4.67;;;1.30;;
12554;SDS011;6343;50.868;4.700;2023-11-25T12:05:26;4.20;;;1.07;;
12554;SDS011;6343;50.868;4.700;2023-11-25T12:07:52;6.23;;;1.40;;
12554;SDS011;6343;50.868;4.700;2023-11-25T12:10:19;5.83;;;1.10;;
12554;SDS011;6343;50.868;4.700;2023-11-25T12:12:45;5.90;;;1.13;;
12554;SDS011;6343;50.868;4.700;2023-11-25T12:15:11;3.77;;;1.00;;
12554;SDS011;6343;50.868;4.700;2023-11-25T12:17:38;5.80;;;1.40;;
12554;SDS011;6343;50.868;4.700;2023-11-25T12:20:07;4.50;;;1.07;;
12554;SDS011;6343;50.868;4.700;2023-11-25T12:22:38;7.43;;;1.63;;
12554;SDS011;6343;50.868;4.700;2023-11-25T12:25:07;6.13;;;1.30;;
12554;SDS011;6343;50.868;4.700;2023-11-25T12:28:15;5.80;;;1.23;;
12554;SDS011;6343;50.868;4.700;2023-11-25T12:30:38;7.57;;;1.50;;
12554;SDS011;6343;50.868;4.700;2023-11-25T12:33:05;7.93;;;1.73;;
12554;SDS011;6343;50.868;4.700;2023-11-25T12:35:41;3.37;;;1.57;;
12554;SDS011;6343;50.868;4.700;2023-11-25T12:38:10;7.97;;;1.83;;
12554;SDS011;6343;50.868;4.700;2023-11-25T12:40:37;3.53;;;1.40;;
12554;SDS011;6343;50.868;4.700;2023-11-25T12:43:07;5.63;;;1.83;;
12554;SDS011;6343;50.868;4.700;2023-11-25T12:48:02;16.03;;;2.37;;
12554;SDS011;6343;50.868;4.700;2023-11-25T12:50:30;5.90;;;1.37;;
12554;SDS011;6343;50.868;4.700;2023-11-25T12:53:03;6.30;;;1.50;;
12554;SDS011;6343;50.868;4.700;2023-11-25T12:55:33;5.27;;;1.60;;
12554;SDS011;6343;50.868;4.700;2023-11-25T12:58:10;5.80;;;1.93;;
12554;SDS011;6343;50.868;4.700;2023-11-25T13:00:36;5.37;;;1.73;;
12554;SDS011;6343;50.868;4.700;2023-11-25T13:03:03;3.60;;;1.40;;
12554;SDS011;6343;50.868;4.700;2023-11-25T13:05:30;6.70;;;1.43;;
12554;SDS011;6343;50.868;4.700;2023-11-25T13:07:56;5.27;;;2.07;;
12554;SDS011;6343;50.868;4.700;2023-11-25T13:10:22;5.20;;;1.80;;
12554;SDS011;6343;50.868;4.700;2023-11-25T13:12:49;3.37;;;1.30;;
12554;SDS011;6343;50.868;4.700;2023-11-25T13:15:15;5.43;;;1.60;;
12554;SDS011;6343;50.868;4.700;2023-11-25T13:17:42;8.10;;;1.77;;
12554;SDS011;6343;50.868;4.700;2023-11-25T13:20:08;7.57;;;1.80;;
12554;SDS011;6343;50.868;4.700;2023-11-25T13:22:36;10.10;;;1.93;;
12554;SDS011;6343;50.868;4.700;2023-11-25T13:25:03;5.93;;;2.17;;
12554;SDS011;6343;50.868;4.700;2023-11-25T13:27:30;7.83;;;2.10;;
12554;SDS011;6343;50.868;4.700;2023-11-25T13:29:56;7.83;;;1.80;;
12554;SDS011;6343;50.868;4.700;2023-11-25T13:32:22;7.77;;;2.10;;
12554;SDS011;6343;50.868;4.700;2023-11-25T13:34:48;7.67;;;1.80;;
12554;SDS011;6343;50.868;4.700;2023-11-25T13:37:15;12.03;;;2.70;;
12554;SDS011;6343;50.868;4.700;2023-11-25T13:39:42;11.47;;;2.87;;
12554;SDS011;6343;50.868;4.700;2023-11-25T13:42:10;10.03;;;2.57;;
12554;SDS011;6343;50.868;4.700;2023-11-25T13:44:36;5.83;;;2.20;;
12554;SDS011;6343;50.868;4.700;2023-11-25T13:47:02;10.50;;;2.37;;
12554;SDS011;6343;50.868;4.700;2023-11-25T13:49:28;7.70;;;2.57;;
12554;SDS011;6343;50.868;4.700;2023-11-25T13:51:55;10.17;;;2.20;;
12554;SDS011;6343;50.868;4.700;2023-11-25T13:54:21;10.80;;;2.30;;
12554;SDS011;6343;50.868;4.700;2023-11-25T13:56:50;9.10;;;2.57;;
12554;SDS011;6343;50.868;4.700;2023-11-25T13:59:16;9.93;;;3.00;;
12554;SDS011;6343;50.868;4.700;2023-11-25T14:01:42;11.03;;;2.90;;
12554;SDS011;6343;50.868;4.700;2023-11-25T14:04:11;11.90;;;2.70;;
12554;SDS011;6343;50.868;4.700;2023-11-25T14:06:37;7.30;;;2.33;;
12554;SDS011;6343;50.868;4.700;2023-11-25T14:09:03;11.53;;;2.27;;
12554;SDS011;6343;50.868;4.700;2023-11-25T14:11:30;10.93;;;2.30;;
12554;SDS011;6343;50.868;4.700;2023-11-25T14:13:56;6.20;;;1.77;;
12554;SDS011;6343;50.868;4.700;2023-11-25T14:16:25;9.23;;;1.80;;
12554;SDS011;6343;50.868;4.700;2023-11-25T14:18:51;5.53;;;1.43;;
12554;SDS011;6343;50.868;4.700;2023-11-25T14:21:17;7.27;;;1.90;;
12554;SDS011;6343;50.868;4.700;2023-11-25T14:23:43;3.63;;;2.07;;
12554;SDS011;6343;50.868;4.700;2023-11-25T14:26:09;8.20;;;1.83;;
12554;SDS011;6343;50.868;4.700;2023-11-25T14:28:35;7.47;;;2.20;;
12554;SDS011;6343;50.868;4.700;2023-11-25T14:31:02;7.33;;;2.67;;
12554;SDS011;6343;50.868;4.700;2023-11-25T14:33:31;10.23;;;2.40;;
12554;SDS011;6343;50.868;4.700;2023-11-25T14:35:58;9.77;;;1.70;;
12554;SDS011;6343;50.868;4.700;2023-11-25T14:38:24;10.53;;;2.87;;
12554;SDS011;6343;50.868;4.700;2023-11-25T14:40:50;9.87;;;2.20;;
12554;SDS011;6343;50.868;4.700;2023-11-25T14:43:16;11.97;;;2.23;;
12554;SDS011;6343;50.868;4.700;2023-11-25T14:45:42;7.53;;;2.10;;
12554;SDS011;6343;50.868;4.700;2023-11-25T14:48:08;8.13;;;2.43;;
12554;SDS011;6343;50.868;4.700;2023-11-25T14:50:35;8.37;;;1.90;;
12554;SDS011;6343;50.868;4.700;2023-11-25T14:53:06;6.13;;;1.87;;
12554;SDS011;6343;50.868;4.700;2023-11-25T14:55:32;3.97;;;1.53;;
12554;SDS011;6343;50.868;4.700;2023-11-25T14:57:58;8.70;;;2.47;;
12554;SDS011;6343;50.868;4.700;2023-11-25T15:00:24;6.53;;;1.97;;
12554;SDS011;6343;50.868;4.700;2023-11-25T15:02:53;6.47;;;2.17;;
12554;SDS011;6343;50.868;4.700;2023-11-25T15:05:19;12.57;;;1.90;;
12554;SDS011;6343;50.868;4.700;2023-11-25T15:07:45;6.50;;;2.10;;
12554;SDS011;6343;50.868;4.700;2023-11-25T15:10:11;10.87;;;2.13;;
12554;SDS011;6343;50.868;4.700;2023-11-25T15:12:37;11.37;;;3.57;;
12554;SDS011;6343;50.868;4.700;2023-11-25T15:15:04;9.73;;;3.30;;
12554;SDS011;6343;50.868;4.700;2023-11-25T15:17:33;14.53;;;3.53;;
12554;SDS011;6343;50.868;4.700;2023-11-25T15:19:59;14.97;;;3.50;;
12554;SDS011;6343;50.868;4.700;2023-11-25T15:22:26;12.83;;;3.73;;
12554;SDS011;6343;50.868;4.700;2023-11-25T15:24:52;9.83;;;4.43;;